createdAt,value
2019-03-03T00:01:32.844Z,1.89
2019-03-03T00:04:22.595Z,1.86
2019-03-03T00:07:11.825Z,1.85
2019-03-03T00:10:01.399Z,1.91
2019-03-03T00:12:50.174Z,1.90
2019-03-03T00:15:39.168Z,1.99
2019-03-03T00:18:28.420Z,2.01
2019-03-03T00:21:18.063Z,1.88
2019-03-03T00:24:07.451Z,1.89
2019-03-03T00:26:57.002Z,1.85
2019-03-03T00:29:46.481Z,1.82
2019-03-03T00:32:35.780Z,1.74
2019-03-03T00:35:25.117Z,1.82
2019-03-03T00:38:36.321Z,1.69
2019-03-03T00:41:42.944Z,1.73
2019-03-03T00:44:47.251Z,1.64
2019-03-03T00:47:58.897Z,1.53
2019-03-03T00:51:17.183Z,1.52
2019-03-03T00:54:27.300Z,1.37
2019-03-03T00:57:26.703Z,1.31
2019-03-03T01:00:43.245Z,1.33
2019-03-03T01:04:07.150Z,1.25
2019-03-03T01:07:23.867Z,1.09
2019-03-03T01:10:23.563Z,1.03
2019-03-03T01:13:22.944Z,1.06
2019-03-03T01:16:18.871Z,1.03
2019-03-03T01:19:25.594Z,0.94
2019-03-03T01:22:29.201Z,0.81
2019-03-03T01:25:18.350Z,0.76
2019-03-03T01:28:08.135Z,0.69
2019-03-03T01:30:57.633Z,0.66
2019-03-03T01:33:46.968Z,0.70
2019-03-03T01:36:36.168Z,0.68
2019-03-03T01:39:25.433Z,0.72
2019-03-03T01:42:14.897Z,0.60
2019-03-03T01:45:05.141Z,0.68
2019-03-03T01:47:54.695Z,0.80
2019-03-03T01:50:43.397Z,0.71
2019-03-03T01:53:32.833Z,0.70
2019-03-03T01:56:22.121Z,0.63
2019-03-03T01:59:11.441Z,0.80
2019-03-03T02:02:01.068Z,0.86
2019-03-03T02:04:50.391Z,0.76
2019-03-03T02:07:39.296Z,0.65
2019-03-03T02:10:28.667Z,0.64
2019-03-03T02:13:18.226Z,0.57
2019-03-03T02:16:07.909Z,0.56
2019-03-03T02:18:57.616Z,0.53
2019-03-03T02:21:46.452Z,0.32
2019-03-03T02:24:35.758Z,0.41
2019-03-03T02:27:25.805Z,0.28
2019-03-03T02:30:17.410Z,-0.39
2019-03-03T02:33:06.647Z,-0.46
2019-03-03T02:35:55.671Z,-0.18
2019-03-03T02:38:45.446Z,-0.06
2019-03-03T02:41:34.845Z,-0.06
2019-03-03T02:44:24.125Z,0.06
2019-03-03T02:47:13.393Z,0.19
2019-03-03T02:50:03.836Z,0.24
2019-03-03T02:52:53.208Z,0.23
2019-03-03T02:55:42.535Z,0.19
2019-03-03T02:58:31.917Z,0.14
2019-03-03T03:01:27.913Z,0.20
2019-03-03T03:04:17.190Z,0.03
2019-03-03T03:07:28.618Z,-0.03
2019-03-03T03:10:39.368Z,-0.03
2019-03-03T03:13:47.058Z,-0.18
2019-03-03T03:16:45.724Z,-0.16
2019-03-03T03:19:56.719Z,-0.40
2019-03-03T03:22:54.357Z,-0.37
2019-03-03T03:25:54.035Z,-0.37
2019-03-03T03:28:50.520Z,-0.26
2019-03-03T03:32:06.125Z,-0.31
2019-03-03T03:35:00.913Z,-0.52
2019-03-03T03:38:21.444Z,-0.47
2019-03-03T03:41:32.465Z,-0.28
2019-03-03T03:44:27.250Z,-0.90
2019-03-03T03:47:28.027Z,-0.86
2019-03-03T03:50:34.352Z,-0.70
2019-03-03T03:53:32.065Z,-0.59
2019-03-03T03:56:36.605Z,-0.60
2019-03-03T03:59:35.384Z,-0.72
2019-03-03T04:02:42.230Z,-0.67
2019-03-03T04:05:48.344Z,-0.59
2019-03-03T04:09:01.855Z,-0.70
2019-03-03T04:12:15.359Z,-0.73
2019-03-03T04:15:13.554Z,-0.68
2019-03-03T04:18:22.202Z,-0.69
2019-03-03T04:21:36.341Z,-0.68
2019-03-03T04:24:50.318Z,-0.72
2019-03-03T04:27:56.541Z,-0.75
2019-03-03T04:31:11.069Z,-0.84
2019-03-03T04:34:20.558Z,-0.87
2019-03-03T04:37:22.258Z,-0.87
2019-03-03T04:40:35.452Z,-0.90
2019-03-03T04:43:32.246Z,-0.93
2019-03-03T04:46:37.334Z,-0.87
2019-03-03T04:49:44.449Z,-1.45
2019-03-03T04:52:42.299Z,-1.83
2019-03-03T04:55:50.243Z,-1.97
2019-03-03T04:59:04.167Z,-2.16
2019-03-03T05:02:12.093Z,-2.35
2019-03-03T05:05:18.788Z,-2.07
2019-03-03T05:08:31.738Z,-1.59
2019-03-03T05:12:15.207Z,-1.34
2019-03-03T05:15:13.382Z,-1.43
2019-03-03T05:18:30.579Z,-1.46
2019-03-03T05:21:19.211Z,-1.42
2019-03-03T05:24:08.539Z,-1.18
2019-03-03T05:26:58.141Z,-1.10
2019-03-03T05:29:47.255Z,-0.88
2019-03-03T05:32:35.893Z,-1.27
2019-03-03T05:35:26.130Z,-1.46
2019-03-03T05:38:15.761Z,-1.30
2019-03-03T05:41:04.940Z,-1.25
2019-03-03T05:43:54.433Z,-1.16
2019-03-03T05:46:44.099Z,-1.10
2019-03-03T05:49:33.354Z,-0.84
2019-03-03T05:52:22.918Z,-0.68
2019-03-03T05:55:12.474Z,-0.76
2019-03-03T05:58:01.776Z,-0.52
2019-03-03T06:00:51.577Z,-0.12
2019-03-03T06:03:40.995Z,0.05
2019-03-03T06:06:30.054Z,0.26
2019-03-03T06:09:19.492Z,0.52
2019-03-03T06:12:08.510Z,0.82
2019-03-03T06:14:57.802Z,0.99
2019-03-03T06:17:47.283Z,1.21
2019-03-03T06:20:36.256Z,1.41
2019-03-03T06:23:25.649Z,1.58
2019-03-03T06:26:14.692Z,1.70
2019-03-03T06:29:03.969Z,1.89
2019-03-03T06:31:53.547Z,2.08
2019-03-03T06:34:42.189Z,2.05
2019-03-03T06:37:31.594Z,1.38
2019-03-03T06:40:20.571Z,0.92
2019-03-03T06:43:09.822Z,1.13
2019-03-03T06:45:59.324Z,0.89
2019-03-03T06:48:48.664Z,1.20
2019-03-03T06:51:38.454Z,1.50
2019-03-03T06:54:27.935Z,1.81
2019-03-03T06:57:17.246Z,2.25
2019-03-03T07:00:12.699Z,2.76
2019-03-03T07:03:02.054Z,2.86
2019-03-03T07:05:51.700Z,2.77
2019-03-03T07:08:41.131Z,2.38
2019-03-03T07:11:30.201Z,2.68
2019-03-03T07:14:19.331Z,2.83
2019-03-03T07:17:08.906Z,2.92
2019-03-03T07:19:58.392Z,2.95
2019-03-03T07:22:47.621Z,3.06
2019-03-03T07:25:37.134Z,3.35
2019-03-03T07:28:26.346Z,3.32
2019-03-03T07:31:16.011Z,3.75
2019-03-03T07:34:05.229Z,4.06
2019-03-03T07:36:54.687Z,4.41
2019-03-03T07:39:43.982Z,4.56
2019-03-03T07:42:33.278Z,4.43
2019-03-03T07:45:22.547Z,4.64
2019-03-03T07:48:11.874Z,4.90
2019-03-03T07:51:01.150Z,4.41
2019-03-03T07:53:50.657Z,5.01
2019-03-03T07:56:40.031Z,4.70
2019-03-03T07:59:29.625Z,4.82
2019-03-03T08:02:19.083Z,5.05
2019-03-03T08:05:08.730Z,5.27
2019-03-03T08:07:58.269Z,5.46
2019-03-03T08:10:47.641Z,5.46
2019-03-03T08:13:37.058Z,5.40
2019-03-03T08:16:26.124Z,5.57
2019-03-03T08:19:15.402Z,6.10
2019-03-03T08:22:04.363Z,6.40
2019-03-03T08:24:53.623Z,6.44
2019-03-03T08:27:42.963Z,6.46
2019-03-03T08:30:32.415Z,6.49
2019-03-03T08:33:21.798Z,6.71
2019-03-03T08:36:11.078Z,6.81
2019-03-03T08:39:00.554Z,6.60
2019-03-03T08:41:53.388Z,6.53
2019-03-03T08:44:52.225Z,6.93
2019-03-03T08:48:00.196Z,7.25
2019-03-03T08:50:59.521Z,6.83
2019-03-03T08:54:06.629Z,7.39
2019-03-03T08:57:13.374Z,7.32
2019-03-03T09:00:12.252Z,7.63
2019-03-03T09:03:23.212Z,7.39
2019-03-03T09:06:40.328Z,7.70
2019-03-03T09:09:46.393Z,7.54
2019-03-03T09:12:58.358Z,7.42
2019-03-03T09:16:16.454Z,7.53
2019-03-03T09:19:24.686Z,7.43
2019-03-03T09:22:39.024Z,7.48
2019-03-03T09:25:34.136Z,7.20
2019-03-03T09:28:38.724Z,7.49
2019-03-03T09:31:46.190Z,7.57
2019-03-03T09:35:00.504Z,7.66
2019-03-03T09:38:17.406Z,7.66
2019-03-03T09:41:36.875Z,7.91
2019-03-03T09:44:42.955Z,8.02
2019-03-03T09:47:38.557Z,8.58
2019-03-03T09:50:51.403Z,8.81
2019-03-03T09:53:57.713Z,8.80
2019-03-03T09:57:15.722Z,8.51
2019-03-03T10:00:31.177Z,8.57
2019-03-03T10:03:45.958Z,8.68
2019-03-03T10:06:54.843Z,8.76
2019-03-03T10:10:06.555Z,9.15
2019-03-03T10:13:08.446Z,9.41
2019-03-03T10:16:22.483Z,9.82
2019-03-03T10:19:17.615Z,9.31
2019-03-03T10:22:42.178Z,9.52
2019-03-03T10:25:41.917Z,9.42
2019-03-03T10:29:07.469Z,9.71
2019-03-03T10:32:22.437Z,9.48
2019-03-03T10:35:27.515Z,9.37
2019-03-03T10:38:36.166Z,9.40
2019-03-03T10:41:51.876Z,9.43
2019-03-03T10:44:59.012Z,9.48
2019-03-03T10:48:16.906Z,9.08
2019-03-03T10:51:22.395Z,8.79
2019-03-03T10:54:17.816Z,8.44
2019-03-03T10:57:25.096Z,8.26
2019-03-03T11:00:34.691Z,8.19
2019-03-03T11:03:29.718Z,8.39
2019-03-03T11:06:36.666Z,8.67
2019-03-03T11:09:36.447Z,8.31
2019-03-03T11:12:44.793Z,8.86
2019-03-03T11:15:45.621Z,9.54
2019-03-03T11:18:56.224Z,9.46
2019-03-03T11:22:04.759Z,9.37
2019-03-03T11:25:18.425Z,8.99
2019-03-03T11:28:40.269Z,8.78
2019-03-03T11:31:50.975Z,8.95
2019-03-03T11:34:59.007Z,9.27
2019-03-03T11:38:13.452Z,9.32
2019-03-03T11:41:14.375Z,9.14
2019-03-03T11:44:18.556Z,8.87
2019-03-03T11:47:26.766Z,9.31
2019-03-03T11:50:47.246Z,9.36
2019-03-03T11:53:57.419Z,9.44
2019-03-03T11:57:00.962Z,8.63
2019-03-03T12:00:09.865Z,8.62
2019-03-03T12:03:16.853Z,8.72
2019-03-03T12:06:17.436Z,8.92
2019-03-03T12:09:33.294Z,8.75
2019-03-03T12:12:38.986Z,8.82
2019-03-03T12:15:46.015Z,8.37
2019-03-03T12:19:12.833Z,8.36
2019-03-03T12:22:11.092Z,8.79
2019-03-03T12:25:22.819Z,8.46
2019-03-03T12:28:37.538Z,8.64
2019-03-03T12:31:57.988Z,8.31
2019-03-03T12:35:08.851Z,8.62
2019-03-03T12:38:26.139Z,8.70
2019-03-03T12:41:32.590Z,8.44
2019-03-03T12:44:35.568Z,8.52
2019-03-03T12:47:43.222Z,8.63
2019-03-03T12:50:58.031Z,8.75
2019-03-03T12:54:04.900Z,8.59
2019-03-03T12:57:07.094Z,8.53
2019-03-03T13:00:22.249Z,8.42
2019-03-03T13:03:33.785Z,8.71
2019-03-03T13:06:35.733Z,8.84
2019-03-03T13:09:51.546Z,8.64
2019-03-03T13:13:06.050Z,8.63
2019-03-03T13:16:08.131Z,8.47
2019-03-03T13:19:16.865Z,8.56
2019-03-03T13:22:29.808Z,8.59
2019-03-03T13:25:39.156Z,8.73
2019-03-03T13:28:53.903Z,8.50
2019-03-03T13:32:20.607Z,8.76
2019-03-03T13:35:34.800Z,8.71
2019-03-03T13:38:52.545Z,9.12
2019-03-03T13:42:09.580Z,9.44
2019-03-03T13:45:00.282Z,9.45
2019-03-03T13:47:49.723Z,8.99
2019-03-03T13:50:39.542Z,9.39
2019-03-03T13:53:29.404Z,9.23
2019-03-03T13:56:19.411Z,8.89
2019-03-03T13:59:09.916Z,9.17
2019-03-03T14:01:59.353Z,9.05
2019-03-03T14:04:54.566Z,9.27
2019-03-03T14:07:44.107Z,9.12
2019-03-03T14:10:35.857Z,9.17
2019-03-03T14:13:26.149Z,9.06
2019-03-03T14:16:15.783Z,9.11
2019-03-03T14:19:07.134Z,9.42
2019-03-03T14:21:56.138Z,9.33
2019-03-03T14:24:45.192Z,10.05
2019-03-03T14:27:35.216Z,9.40
2019-03-03T14:30:26.328Z,9.15
2019-03-03T14:33:17.078Z,9.33
2019-03-03T14:36:06.429Z,9.15
2019-03-03T14:38:55.759Z,9.05
2019-03-03T14:41:46.723Z,10.11
2019-03-03T14:44:36.139Z,9.78
2019-03-03T14:47:26.732Z,9.66
2019-03-03T14:50:18.318Z,8.67
2019-03-03T14:53:13.061Z,8.96
2019-03-03T14:56:03.440Z,9.12
2019-03-03T14:58:52.969Z,8.48
2019-03-03T15:01:43.215Z,8.69
2019-03-03T15:04:32.621Z,9.01
2019-03-03T15:07:22.711Z,8.46
2019-03-03T15:10:13.007Z,8.84
2019-03-03T15:13:02.601Z,8.30
2019-03-03T15:15:57.498Z,8.49
2019-03-03T15:18:49.139Z,8.50
2019-03-03T15:21:40.266Z,8.70
2019-03-03T15:24:29.849Z,8.94
2019-03-03T15:27:19.106Z,8.09
2019-03-03T15:30:10.073Z,7.66
2019-03-03T15:33:00.450Z,6.66
2019-03-03T15:35:32.600Z,6.07
2019-03-03T15:38:04.108Z,5.57
2019-03-03T15:40:35.181Z,5.46
2019-03-03T15:43:06.739Z,5.24
2019-03-03T15:45:38.225Z,5.25
2019-03-03T15:48:10.931Z,5.13
2019-03-03T15:50:42.936Z,5.20
2019-03-03T15:53:13.941Z,5.03
2019-03-03T15:55:45.703Z,4.95
2019-03-03T15:58:17.214Z,4.96
2019-03-03T16:00:48.209Z,4.90
2019-03-03T16:03:19.230Z,4.77
2019-03-03T16:05:50.307Z,4.80
2019-03-03T16:08:22.408Z,4.77
2019-03-03T16:10:54.266Z,4.69
2019-03-03T16:13:25.562Z,4.64
2019-03-03T16:15:56.735Z,4.73
2019-03-03T16:18:28.081Z,4.67
2019-03-03T16:20:59.074Z,4.58
2019-03-03T16:23:30.120Z,4.51
2019-03-03T16:26:01.903Z,4.45
2019-03-03T16:28:33.207Z,4.30
2019-03-03T16:31:06.048Z,4.33
2019-03-03T16:33:37.087Z,4.36
2019-03-03T16:36:08.634Z,4.33
2019-03-03T16:38:39.992Z,4.22
2019-03-03T16:41:11.481Z,4.27
2019-03-03T16:43:43.303Z,4.26
2019-03-03T16:46:15.816Z,4.09
2019-03-03T16:48:47.165Z,4.11
2019-03-03T16:51:18.528Z,4.14
2019-03-03T16:53:49.921Z,4.01
2019-03-03T16:56:21.392Z,4.08
2019-03-03T16:58:52.383Z,4.00
2019-03-03T17:01:23.795Z,3.94
2019-03-03T17:03:55.037Z,3.93
2019-03-03T17:06:26.060Z,3.79
2019-03-03T17:08:57.242Z,3.81
2019-03-03T17:11:28.334Z,3.89
2019-03-03T17:13:59.376Z,3.89
2019-03-03T17:16:31.246Z,3.81
2019-03-03T17:19:02.292Z,3.78
2019-03-03T17:21:33.288Z,3.54
2019-03-03T17:24:06.036Z,3.52
2019-03-03T17:26:37.135Z,3.37
2019-03-03T17:29:08.836Z,3.24
2019-03-03T17:31:40.955Z,3.33
2019-03-03T17:34:13.257Z,3.16
2019-03-03T17:36:45.235Z,3.16
2019-03-03T17:39:16.761Z,3.19
2019-03-03T17:41:48.482Z,3.22
2019-03-03T17:44:19.892Z,3.25
2019-03-03T17:46:51.234Z,3.30
2019-03-03T17:49:24.499Z,3.37
2019-03-03T17:51:55.546Z,3.22
2019-03-03T17:54:26.571Z,3.28
2019-03-03T17:56:57.665Z,3.10
2019-03-03T17:59:28.666Z,3.02
2019-03-03T18:02:00.066Z,2.90
2019-03-03T18:04:31.130Z,2.73
2019-03-03T18:07:04.296Z,2.83
2019-03-03T18:09:35.307Z,2.82
2019-03-03T18:12:07.112Z,2.68
2019-03-03T18:14:40.240Z,2.56
2019-03-03T18:17:11.695Z,2.53
2019-03-03T18:19:42.765Z,2.40
2019-03-03T18:22:14.889Z,2.37
2019-03-03T18:24:46.931Z,2.35
2019-03-03T18:27:18.715Z,2.39
2019-03-03T18:29:50.069Z,2.27
2019-03-03T18:32:21.595Z,2.27
2019-03-03T18:34:52.639Z,2.80
2019-03-03T18:37:24.023Z,2.63
2019-03-03T18:39:56.860Z,2.74
2019-03-03T18:42:29.899Z,2.62
2019-03-03T18:45:00.908Z,2.83
2019-03-03T18:47:31.936Z,2.75
2019-03-03T18:50:03.063Z,2.70
2019-03-03T18:52:34.840Z,2.54
2019-03-03T18:55:08.234Z,2.45
2019-03-03T18:57:39.673Z,2.38
2019-03-03T19:00:18.598Z,2.08
2019-03-03T19:02:49.676Z,1.84
2019-03-03T19:05:23.705Z,1.70
2019-03-03T19:07:55.191Z,1.68
2019-03-03T19:10:26.717Z,1.54
2019-03-03T19:12:58.229Z,1.41
2019-03-03T19:15:29.918Z,1.43
2019-03-03T19:18:01.097Z,1.45
2019-03-03T19:20:33.324Z,1.39
2019-03-03T19:23:04.867Z,1.38
2019-03-03T19:25:35.915Z,1.33
2019-03-03T19:28:07.441Z,1.27
2019-03-03T19:30:38.943Z,1.23
2019-03-03T19:33:19.427Z,1.29
2019-03-03T19:35:51.190Z,1.17
2019-03-03T19:38:22.532Z,1.01
2019-03-03T19:40:53.651Z,0.73
2019-03-03T19:43:25.091Z,0.81
2019-03-03T19:45:56.208Z,0.84
2019-03-03T19:48:28.755Z,0.84
2019-03-03T19:50:59.965Z,0.35
2019-03-03T19:53:31.630Z,0.56
2019-03-03T19:56:03.648Z,0.63
2019-03-03T19:58:35.545Z,0.66
2019-03-03T20:01:07.822Z,0.70
2019-03-03T20:03:39.206Z,0.66
2019-03-03T20:06:10.822Z,0.55
2019-03-03T20:08:41.928Z,0.59
2019-03-03T20:11:13.091Z,0.55
2019-03-03T20:13:44.128Z,0.50
2019-03-03T20:16:16.730Z,0.59
2019-03-03T20:18:50.810Z,0.40
2019-03-03T20:21:23.194Z,0.40
2019-03-03T20:23:54.404Z,0.44
2019-03-03T20:26:27.070Z,0.25
2019-03-03T20:28:58.571Z,0.20
2019-03-03T20:31:29.609Z,0.09
2019-03-03T20:34:01.106Z,0.22
2019-03-03T20:36:32.124Z,0.15
2019-03-03T20:39:03.227Z,0.13
2019-03-03T20:41:34.235Z,0.07
2019-03-03T20:44:05.382Z,0.19
2019-03-03T20:46:37.825Z,-0.02
2019-03-03T20:49:15.084Z,-0.03
2019-03-03T20:51:50.107Z,0.13
2019-03-03T20:54:26.699Z,0.14
2019-03-03T20:56:59.096Z,0.09
2019-03-03T20:59:48.883Z,-0.23
2019-03-03T21:02:40.225Z,-0.51
2019-03-03T21:05:30.578Z,-0.57
2019-03-03T21:08:23.126Z,-0.85
2019-03-03T21:11:17.497Z,-0.77
2019-03-03T21:14:09.550Z,-1.24
2019-03-03T21:16:59.945Z,-1.67
2019-03-03T21:19:59.256Z,-1.89
2019-03-03T21:22:49.665Z,-1.68
2019-03-03T21:25:42.419Z,-2.09
2019-03-03T21:28:47.099Z,-1.78
2019-03-03T21:31:42.227Z,-1.25
2019-03-03T21:34:32.106Z,-1.47
2019-03-03T21:37:22.306Z,-1.86
2019-03-03T21:40:17.865Z,-2.25
2019-03-03T21:43:08.657Z,-2.38
2019-03-03T21:46:01.062Z,-2.04
2019-03-03T21:48:56.672Z,-1.62
2019-03-03T21:51:47.764Z,-1.36
2019-03-03T21:54:40.419Z,-1.20
2019-03-03T21:57:30.531Z,-1.13
2019-03-03T22:00:34.320Z,-0.96
2019-03-03T22:03:24.315Z,-1.05
2019-03-03T22:06:16.899Z,-1.16
2019-03-03T22:09:13.420Z,-1.18
2019-03-03T22:12:09.130Z,-1.03
2019-03-03T22:14:58.936Z,-1.02
2019-03-03T22:17:48.887Z,-0.95
2019-03-03T22:20:57.488Z,-1.09
2019-03-03T22:23:47.504Z,-1.07
2019-03-03T22:26:39.193Z,-1.05
2019-03-03T22:29:35.464Z,-1.01
2019-03-03T22:32:28.582Z,-1.10
2019-03-03T22:35:19.450Z,-1.37
2019-03-03T22:38:13.730Z,-1.67
2019-03-03T22:41:09.155Z,-1.67
2019-03-03T22:44:01.029Z,-2.61
2019-03-03T22:46:51.464Z,-2.70
2019-03-03T22:49:46.545Z,-2.93
2019-03-03T22:52:36.046Z,-3.29
2019-03-03T22:55:27.791Z,-3.18
2019-03-03T22:58:22.180Z,-3.11
2019-03-03T23:01:21.706Z,-3.08
2019-03-03T23:04:45.309Z,-2.92
2019-03-03T23:08:10.807Z,-2.62
2019-03-03T23:11:48.191Z,-2.66
2019-03-03T23:15:00.351Z,-2.87
2019-03-03T23:18:23.053Z,-2.60
2019-03-03T23:21:29.919Z,-3.13
2019-03-03T23:24:57.363Z,-2.68
2019-03-03T23:27:51.160Z,-3.28
2019-03-03T23:30:44.070Z,-3.35
2019-03-03T23:33:33.238Z,-2.98
2019-03-03T23:36:25.976Z,-3.03
2019-03-03T23:39:16.089Z,-2.62
2019-03-03T23:42:08.301Z,-2.85
2019-03-03T23:45:00.310Z,-2.72
2019-03-03T23:47:55.143Z,-2.55
2019-03-03T23:50:47.167Z,-3.01
2019-03-03T23:53:39.824Z,-2.66
2019-03-03T23:56:31.130Z,-2.70
2019-03-03T23:59:20.920Z,-2.81
